Shallowater, Texas
Current Conditions -  °F | °C
As of 7:53 AM on Friday 24 Oct 2014 (Local Time) from KLBB Reporting Station
Clear Clear  
Wind Chill: 52°   Ceiling: Unl
Heat Index: 52°   Visibility: 10mi
Dew Point: 49°   Wind: 3mph
Humidity: 89%   Direction: 260°W
Pressure: 30.15"   Gusts: NA
Location:  33.69°N, 102°W
Report Text: KLBB 241253Z 26003KT 10SM CLR 11/09 A3015 RMK AO2 SLP182 T01110094
Loading
Personal Weather Stations






























Interactive Weather Map
Tropical Storm Tracking
New forecast layout! Learn more

10-Day Weather Forecast

Advertisements
Track Severe Weather on mobile